Flight Track Log - Related Links

Times and Time Zones

All times are in EDT time to prevent confusion due to time zone crossing. See the CLH304 flight status page for this flight to view local times or setup timezone preferences in your user account.

Time Position Orientation Groundspeed Altitude Reporting Facility
EDT Latitude Longitude Course Direction KTS MPH feet Rate Location/Type
Fri 03:59:00 PM 49.4114 8.4196 187° South  Level Estimated
Fri 04:00:00 PM 49.3089 8.3993 187° South  Level Estimated
Fri 04:01:00 PM 49.2064 8.3791 187° South  Level Estimated
Fri 04:02:00 PM 49.1039 8.3590 187° South  Level Estimated
Fri 04:03:00 PM 49.0014 8.3389 187° South  Level Estimated
Fri 04:04:00 PM 48.8989 8.3190 187° South  Level Estimated
Fri 04:05:00 PM 48.7963 8.2991 187° South  Level Estimated
Fri 04:06:00 PM 48.6938 8.2793 187° South  Level Estimated
Fri 04:07:00 PM 48.5913 8.2596 187° South  Level Estimated
Fri 04:08:00 PM 48.4887 8.2400 187° South  Level Estimated
Fri 04:09:00 PM 48.3862 8.2204 187° South  Level Estimated
Fri 04:10:00 PM 48.2836 8.2009 187° South  Level Estimated
Fri 04:11:00 PM 48.1811 8.1816 187° South  Level Estimated
Fri 04:12:00 PM 48.0785 8.1622 187° South  Level Estimated
Fri 04:13:00 PM 47.9760 8.1430 187° South  Level Estimated
Fri 04:14:00 PM 47.8734 8.1238 187° South  Level Estimated
Fri 04:15:00 PM 47.7709 8.1047 187° South  Level Estimated
Fri 04:16:00 PM 47.6683 8.0857 187° South  Level Estimated
Fri 04:17:00 PM 47.5658 8.0668 187° South  Level Estimated
Fri 04:18:00 PM 47.4632 8.0479 187° South  Level Estimated
Fri 04:19:00 PM 47.3606 8.0291 187° South  Level Estimated
Fri 04:20:00 PM 47.2580 8.0104 187° South  Level Estimated
Fri 04:21:00 PM 47.1555 7.9917 187° South  Level Estimated
Fri 04:22:00 PM 47.0529 7.9732 187° South  Level Estimated
Fri 04:23:00 PM 46.9503 7.9547 187° South  Level Estimated
Fri 04:24:00 PM 46.8477 7.9362 187° South  Level Estimated
Fri 04:25:00 PM 46.7451 7.9179 187° South  Level Estimated
Fri 04:26:00 PM 46.6425 7.8996 187° South  Level Estimated
Fri 04:27:00 PM 46.5399 7.8814 187° South  Level Estimated
Fri 04:28:00 PM 46.4373 7.8632 187° South  Level Estimated
Fri 04:29:00 PM 46.3347 7.8451 187° South  Level Estimated
Fri 04:30:00 PM 46.2321 7.8271 187° South  Level Estimated
Fri 04:31:00 PM 46.1295 7.8091 187° South  Level Estimated
Fri 04:32:00 PM 46.0269 7.7912 187° South  Level Estimated
Fri 04:33:00 PM 45.9243 7.7734 187° South  Level Estimated
Fri 04:34:00 PM 45.8217 7.7557 187° South  Level Estimated
Fri 04:35:00 PM 45.7191 7.7380 187° South  Level Estimated
Fri 04:36:00 PM 45.6164 7.7204 187° South  Level Estimated
Fri 04:37:00 PM 45.5138 7.7028 187° South  Level Estimated
Fri 04:38:00 PM 45.4112 7.6853 187° South  Level Estimated
Fri 04:39:00 PM 45.3086 7.6679 187° South  Level Estimated
Fri 04:40:00 PM 45.2059 7.6505 187° South  Level Estimated
Fri 04:41:00 PM 45.2008 7.6496 187° South  Level Estimated
Fri 04:42:00 PM 45.2008 7.6496 35° Northeast  Level Estimated
Fri 04:43:00 PM 45.2008 7.6496 35° Northeast  Level Estimated
Fri 04:44:00 PM 45.2008 7.6496 35° Northeast  Level Estimated
Fri 04:45:00 PM 45.2008 7.6496 35° Northeast  Level Estimated
Fri 04:46:00 PM 45.2008 7.6496 35° Northeast  Level Estimated
Fri 04:47:00 PM 45.2008 7.6496 35° Northeast  Level Estimated
Fri 04:48:00 PM 45.2008 7.6496 35° Northeast  Level Estimated
Fri 04:49:00 PM 45.2008 7.6496 35° Northeast  Level Estimated
Fri 04:50:00 PM 45.2008 7.6496 35° Northeast  Level Estimated
Fri 04:51:00 PM 45.2008 7.6496 35° Northeast  Level Estimated
Fri 04:52:00 PM 45.2008 7.6496 35° Northeast  Level Estimated
Fri 04:53:00 PM 45.2008 7.6496 35° Northeast  Level Estimated
Fri 04:54:00 PM 45.2008 7.6496 35° Northeast  Level Estimated
Fri 04:55:00 PM 45.2008 7.6496 35° Northeast  Level Estimated
Fri 04:56:00 PM 45.2008 7.6496 35° Northeast  Level Estimated

Login

Don't have an account? Register now (free) for customized features, flight alerts, and more!